sensor_id;sensor_type;location;lat;lon;timestamp;P1;durP1;ratioP1;P2;durP2;ratioP2
9986;SDS011;5033;46.310;11.214;2023-08-06T00:01:56;1.10;;;1.10;;
9986;SDS011;5033;46.310;11.214;2023-08-06T00:04:22;0.80;;;0.80;;
9986;SDS011;5033;46.310;11.214;2023-08-06T00:06:49;0.90;;;0.90;;
9986;SDS011;5033;46.310;11.214;2023-08-06T00:09:16;1.05;;;1.05;;
9986;SDS011;5033;46.310;11.214;2023-08-06T00:11:43;0.90;;;0.90;;
9986;SDS011;5033;46.310;11.214;2023-08-06T00:14:13;2.25;;;1.10;;
9986;SDS011;5033;46.310;11.214;2023-08-06T00:16:42;1.10;;;1.00;;
9986;SDS011;5033;46.310;11.214;2023-08-06T00:19:10;0.90;;;0.90;;
9986;SDS011;5033;46.310;11.214;2023-08-06T00:21:37;1.05;;;1.05;;
9986;SDS011;5033;46.310;11.214;2023-08-06T00:24:04;1.38;;;1.00;;
9986;SDS011;5033;46.310;11.214;2023-08-06T00:26:31;1.17;;;1.08;;
9986;SDS011;5033;46.310;11.214;2023-08-06T00:28:58;0.90;;;0.90;;
9986;SDS011;5033;46.310;11.214;2023-08-06T00:31:27;1.10;;;1.10;;
9986;SDS011;5033;46.310;11.214;2023-08-06T00:33:54;1.10;;;1.00;;
9986;SDS011;5033;46.310;11.214;2023-08-06T00:36:20;1.23;;;1.13;;
9986;SDS011;5033;46.310;11.214;2023-08-06T00:38:48;1.10;;;1.00;;
9986;SDS011;5033;46.310;11.214;2023-08-06T00:41:15;1.00;;;1.00;;
9986;SDS011;5033;46.310;11.214;2023-08-06T00:43:42;1.20;;;1.10;;
9986;SDS011;5033;46.310;11.214;2023-08-06T00:46:09;1.60;;;1.15;;
9986;SDS011;5033;46.310;11.214;2023-08-06T00:48:37;0.90;;;0.90;;
9986;SDS011;5033;46.310;11.214;2023-08-06T00:51:05;0.98;;;0.98;;
9986;SDS011;5033;46.310;11.214;2023-08-06T00:53:32;0.93;;;0.93;;
9986;SDS011;5033;46.310;11.214;2023-08-06T00:55:59;1.05;;;1.05;;
9986;SDS011;5033;46.310;11.214;2023-08-06T00:58:27;0.70;;;0.70;;
9986;SDS011;5033;46.310;11.214;2023-08-06T01:00:55;1.00;;;1.00;;
9986;SDS011;5033;46.310;11.214;2023-08-06T01:03:21;0.80;;;0.80;;
9986;SDS011;5033;46.310;11.214;2023-08-06T01:05:50;0.77;;;0.77;;
9986;SDS011;5033;46.310;11.214;2023-08-06T01:08:19;1.00;;;0.80;;
9986;SDS011;5033;46.310;11.214;2023-08-06T01:11:04;0.90;;;0.90;;
9986;SDS011;5033;46.310;11.214;2023-08-06T01:13:37;0.98;;;0.98;;
9986;SDS011;5033;46.310;11.214;2023-08-06T01:16:09;1.00;;;1.00;;
9986;SDS011;5033;46.310;11.214;2023-08-06T01:18:37;0.93;;;0.93;;
9986;SDS011;5033;46.310;11.214;2023-08-06T01:21:08;0.90;;;0.90;;
9986;SDS011;5033;46.310;11.214;2023-08-06T01:23:35;3.15;;;1.13;;
9986;SDS011;5033;46.310;11.214;2023-08-06T01:26:03;1.30;;;0.80;;
9986;SDS011;5033;46.310;11.214;2023-08-06T01:28:40;0.85;;;0.75;;
9986;SDS011;5033;46.310;11.214;2023-08-06T01:31:15;0.93;;;0.93;;
9986;SDS011;5033;46.310;11.214;2023-08-06T01:33:47;1.48;;;1.05;;
9986;SDS011;5033;46.310;11.214;2023-08-06T01:36:17;1.00;;;1.00;;
9986;SDS011;5033;46.310;11.214;2023-08-06T01:38:45;0.90;;;0.90;;
9986;SDS011;5033;46.310;11.214;2023-08-06T01:41:12;0.80;;;0.80;;
9986;SDS011;5033;46.310;11.214;2023-08-06T01:43:39;0.80;;;0.80;;
9986;SDS011;5033;46.310;11.214;2023-08-06T01:46:06;0.93;;;0.90;;
9986;SDS011;5033;46.310;11.214;2023-08-06T01:48:33;0.70;;;0.70;;
9986;SDS011;5033;46.310;11.214;2023-08-06T01:51:00;1.70;;;1.00;;
9986;SDS011;5033;46.310;11.214;2023-08-06T01:53:28;0.90;;;0.90;;
9986;SDS011;5033;46.310;11.214;2023-08-06T01:55:56;0.98;;;0.93;;
9986;SDS011;5033;46.310;11.214;2023-08-06T01:58:23;0.98;;;0.98;;
9986;SDS011;5033;46.310;11.214;2023-08-06T02:00:50;0.98;;;0.98;;
9986;SDS011;5033;46.310;11.214;2023-08-06T02:03:17;1.15;;;0.98;;
9986;SDS011;5033;46.310;11.214;2023-08-06T02:05:44;1.10;;;1.05;;
9986;SDS011;5033;46.310;11.214;2023-08-06T02:08:12;1.10;;;1.00;;
9986;SDS011;5033;46.310;11.214;2023-08-06T02:10:40;0.90;;;0.90;;
9986;SDS011;5033;46.310;11.214;2023-08-06T02:13:07;0.80;;;0.80;;
9986;SDS011;5033;46.310;11.214;2023-08-06T02:15:35;0.80;;;0.80;;
9986;SDS011;5033;46.310;11.214;2023-08-06T02:18:02;1.67;;;0.80;;
9986;SDS011;5033;46.310;11.214;2023-08-06T02:20:29;0.85;;;0.85;;
9986;SDS011;5033;46.310;11.214;2023-08-06T02:22:56;1.15;;;0.93;;
9986;SDS011;5033;46.310;11.214;2023-08-06T02:25:23;0.82;;;0.82;;
9986;SDS011;5033;46.310;11.214;2023-08-06T02:27:52;1.55;;;1.10;;
9986;SDS011;5033;46.310;11.214;2023-08-06T02:30:19;0.82;;;0.82;;
9986;SDS011;5033;46.310;11.214;2023-08-06T02:32:48;0.90;;;0.90;;
9986;SDS011;5033;46.310;11.214;2023-08-06T02:35:15;0.80;;;0.80;;
9986;SDS011;5033;46.310;11.214;2023-08-06T02:37:42;0.88;;;0.88;;
9986;SDS011;5033;46.310;11.214;2023-08-06T02:40:09;0.90;;;0.90;;
9986;SDS011;5033;46.310;11.214;2023-08-06T02:42:36;0.75;;;0.75;;
9986;SDS011;5033;46.310;11.214;2023-08-06T02:45:06;1.00;;;1.00;;
9986;SDS011;5033;46.310;11.214;2023-08-06T02:47:34;0.82;;;0.82;;
9986;SDS011;5033;46.310;11.214;2023-08-06T02:50:01;1.00;;;1.00;;
9986;SDS011;5033;46.310;11.214;2023-08-06T02:52:28;0.90;;;0.90;;
9986;SDS011;5033;46.310;11.214;2023-08-06T02:54:55;0.90;;;0.90;;
9986;SDS011;5033;46.310;11.214;2023-08-06T02:57:24;1.00;;;1.00;;
9986;SDS011;5033;46.310;11.214;2023-08-06T02:59:52;0.80;;;0.80;;
9986;SDS011;5033;46.310;11.214;2023-08-06T03:02:20;1.23;;;0.80;;
9986;SDS011;5033;46.310;11.214;2023-08-06T03:04:47;0.90;;;0.90;;
9986;SDS011;5033;46.310;11.214;2023-08-06T03:07:14;0.77;;;0.77;;
9986;SDS011;5033;46.310;11.214;2023-08-06T03:09:41;0.77;;;0.77;;
9986;SDS011;5033;46.310;11.214;2023-08-06T03:12:08;0.80;;;0.80;;
9986;SDS011;5033;46.310;11.214;2023-08-06T03:14:35;0.90;;;0.90;;
9986;SDS011;5033;46.310;11.214;2023-08-06T03:17:03;0.77;;;0.77;;
9986;SDS011;5033;46.310;11.214;2023-08-06T03:19:31;0.90;;;0.90;;
9986;SDS011;5033;46.310;11.214;2023-08-06T03:21:58;0.80;;;0.80;;
9986;SDS011;5033;46.310;11.214;2023-08-06T03:24:25;0.68;;;0.68;;
9986;SDS011;5033;46.310;11.214;2023-08-06T03:26:52;0.85;;;0.85;;
9986;SDS011;5033;46.310;11.214;2023-08-06T03:29:19;0.70;;;0.70;;
9986;SDS011;5033;46.310;11.214;2023-08-06T03:31:47;0.88;;;0.88;;
9986;SDS011;5033;46.310;11.214;2023-08-06T03:34:14;0.80;;;0.80;;
9986;SDS011;5033;46.310;11.214;2023-08-06T03:36:42;0.82;;;0.82;;
9986;SDS011;5033;46.310;11.214;2023-08-06T03:39:10;0.80;;;0.80;;
9986;SDS011;5033;46.310;11.214;2023-08-06T03:41:37;0.70;;;0.70;;
9986;SDS011;5033;46.310;11.214;2023-08-06T03:44:04;0.80;;;0.80;;
9986;SDS011;5033;46.310;11.214;2023-08-06T03:46:31;0.70;;;0.70;;
9986;SDS011;5033;46.310;11.214;2023-08-06T03:48:59;0.85;;;0.85;;
9986;SDS011;5033;46.310;11.214;2023-08-06T03:51:26;0.90;;;0.90;;
9986;SDS011;5033;46.310;11.214;2023-08-06T03:53:55;0.88;;;0.88;;
9986;SDS011;5033;46.310;11.214;2023-08-06T03:56:22;0.90;;;0.90;;
9986;SDS011;5033;46.310;11.214;2023-08-06T03:58:49;0.90;;;0.90;;
9986;SDS011;5033;46.310;11.214;2023-08-06T04:01:16;0.82;;;0.82;;
9986;SDS011;5033;46.310;11.214;2023-08-06T04:03:42;0.90;;;0.90;;
9986;SDS011;5033;46.310;11.214;2023-08-06T04:06:09;0.90;;;0.90;;
9986;SDS011;5033;46.310;11.214;2023-08-06T04:08:36;0.85;;;0.85;;
9986;SDS011;5033;46.310;11.214;2023-08-06T04:11:05;0.90;;;0.90;;
9986;SDS011;5033;46.310;11.214;2023-08-06T04:13:33;0.90;;;0.90;;
9986;SDS011;5033;46.310;11.214;2023-08-06T04:16:00;0.80;;;0.80;;
9986;SDS011;5033;46.310;11.214;2023-08-06T04:18:28;0.98;;;0.98;;
9986;SDS011;5033;46.310;11.214;2023-08-06T04:20:55;1.10;;;1.10;;
9986;SDS011;5033;46.310;11.214;2023-08-06T04:23:22;0.80;;;0.80;;
9986;SDS011;5033;46.310;11.214;2023-08-06T04:25:49;0.73;;;0.73;;
9986;SDS011;5033;46.310;11.214;2023-08-06T04:28:18;0.93;;;0.93;;
9986;SDS011;5033;46.310;11.214;2023-08-06T04:30:45;1.13;;;0.93;;
9986;SDS011;5033;46.310;11.214;2023-08-06T04:33:12;0.93;;;0.90;;
9986;SDS011;5033;46.310;11.214;2023-08-06T04:35:40;1.00;;;1.00;;
9986;SDS011;5033;46.310;11.214;2023-08-06T04:38:07;0.88;;;0.88;;
9986;SDS011;5033;46.310;11.214;2023-08-06T04:40:33;0.93;;;0.93;;
9986;SDS011;5033;46.310;11.214;2023-08-06T04:43:01;1.10;;;1.10;;
9986;SDS011;5033;46.310;11.214;2023-08-06T04:45:29;0.90;;;0.90;;
9986;SDS011;5033;46.310;11.214;2023-08-06T04:47:56;0.90;;;0.90;;
9986;SDS011;5033;46.310;11.214;2023-08-06T04:50:23;1.00;;;1.00;;
9986;SDS011;5033;46.310;11.214;2023-08-06T04:52:50;0.70;;;0.70;;
9986;SDS011;5033;46.310;11.214;2023-08-06T04:55:17;1.00;;;1.00;;
9986;SDS011;5033;46.310;11.214;2023-08-06T04:57:44;0.88;;;0.88;;
9986;SDS011;5033;46.310;11.214;2023-08-06T05:00:12;0.80;;;0.80;;
9986;SDS011;5033;46.310;11.214;2023-08-06T05:02:40;0.98;;;0.98;;
9986;SDS011;5033;46.310;11.214;2023-08-06T05:05:07;0.88;;;0.68;;
9986;SDS011;5033;46.310;11.214;2023-08-06T05:07:34;1.00;;;1.00;;
9986;SDS011;5033;46.310;11.214;2023-08-06T05:10:01;1.20;;;1.10;;
9986;SDS011;5033;46.310;11.214;2023-08-06T05:12:29;0.82;;;0.82;;
9986;SDS011;5033;46.310;11.214;2023-08-06T05:14:56;0.90;;;0.90;;
9986;SDS011;5033;46.310;11.214;2023-08-06T05:17:23;0.80;;;0.80;;
9986;SDS011;5033;46.310;11.214;2023-08-06T05:19:52;1.25;;;0.75;;
9986;SDS011;5033;46.310;11.214;2023-08-06T05:22:19;0.80;;;0.80;;
9986;SDS011;5033;46.310;11.214;2023-08-06T05:24:46;0.80;;;0.80;;
9986;SDS011;5033;46.310;11.214;2023-08-06T05:27:13;1.00;;;1.00;;
9986;SDS011;5033;46.310;11.214;2023-08-06T05:29:40;0.95;;;0.95;;
9986;SDS011;5033;46.310;11.214;2023-08-06T05:32:08;0.90;;;0.90;;
9986;SDS011;5033;46.310;11.214;2023-08-06T05:34:35;0.95;;;0.77;;
9986;SDS011;5033;46.310;11.214;2023-08-06T05:37:04;0.82;;;0.82;;
9986;SDS011;5033;46.310;11.214;2023-08-06T05:39:32;0.70;;;0.70;;
9986;SDS011;5033;46.310;11.214;2023-08-06T05:41:58;1.95;;;0.77;;
9986;SDS011;5033;46.310;11.214;2023-08-06T05:44:25;0.60;;;0.60;;
9986;SDS011;5033;46.310;11.214;2023-08-06T05:46:53;0.95;;;0.75;;
9986;SDS011;5033;46.310;11.214;2023-08-06T05:49:20;0.80;;;0.80;;
9986;SDS011;5033;46.310;11.214;2023-08-06T05:51:47;1.33;;;1.23;;
9986;SDS011;5033;46.310;11.214;2023-08-06T05:54:16;2.17;;;1.02;;
9986;SDS011;5033;46.310;11.214;2023-08-06T05:56:42;0.80;;;0.80;;
9986;SDS011;5033;46.310;11.214;2023-08-06T05:59:09;1.90;;;1.00;;
9986;SDS011;5033;46.310;11.214;2023-08-06T06:01:36;1.25;;;0.82;;
9986;SDS011;5033;46.310;11.214;2023-08-06T06:04:03;2.47;;;1.00;;
9986;SDS011;5033;46.310;11.214;2023-08-06T06:06:30;0.93;;;0.93;;
9986;SDS011;5033;46.310;11.214;2023-08-06T06:08:57;0.85;;;0.82;;
9986;SDS011;5033;46.310;11.214;2023-08-06T06:11:26;1.27;;;0.88;;
9986;SDS011;5033;46.310;11.214;2023-08-06T06:13:53;1.15;;;0.80;;
9986;SDS011;5033;46.310;11.214;2023-08-06T06:16:20;0.90;;;0.90;;
9986;SDS011;5033;46.310;11.214;2023-08-06T06:18:47;1.23;;;0.80;;
9986;SDS011;5033;46.310;11.214;2023-08-06T06:21:14;1.95;;;0.70;;
9986;SDS011;5033;46.310;11.214;2023-08-06T06:23:41;1.75;;;1.20;;
9986;SDS011;5033;46.310;11.214;2023-08-06T06:26:08;0.90;;;0.90;;
9986;SDS011;5033;46.310;11.214;2023-08-06T06:28:37;1.45;;;0.90;;
9986;SDS011;5033;46.310;11.214;2023-08-06T06:31:04;2.17;;;1.15;;
9986;SDS011;5033;46.310;11.214;2023-08-06T06:33:31;1.02;;;1.02;;
9986;SDS011;5033;46.310;11.214;2023-08-06T06:35:58;0.88;;;0.88;;
9986;SDS011;5033;46.310;11.214;2023-08-06T06:38:25;1.23;;;0.98;;
9986;SDS011;5033;46.310;11.214;2023-08-06T06:40:55;0.85;;;0.82;;
9986;SDS011;5033;46.310;11.214;2023-08-06T06:43:23;0.90;;;0.90;;
9986;SDS011;5033;46.310;11.214;2023-08-06T06:45:53;0.90;;;0.90;;
9986;SDS011;5033;46.310;11.214;2023-08-06T06:48:23;1.73;;;1.00;;
9986;SDS011;5033;46.310;11.214;2023-08-06T06:50:50;1.90;;;0.90;;
9986;SDS011;5033;46.310;11.214;2023-08-06T06:53:17;0.90;;;0.90;;
9986;SDS011;5033;46.310;11.214;2023-08-06T06:55:44;0.80;;;0.80;;
9986;SDS011;5033;46.310;11.214;2023-08-06T06:58:14;1.15;;;1.00;;
9986;SDS011;5033;46.310;11.214;2023-08-06T07:00:41;1.85;;;0.98;;
9986;SDS011;5033;46.310;11.214;2023-08-06T07:03:10;1.83;;;0.90;;
9986;SDS011;5033;46.310;11.214;2023-08-06T07:05:37;1.75;;;1.00;;
9986;SDS011;5033;46.310;11.214;2023-08-06T07:08:04;2.58;;;1.10;;
9986;SDS011;5033;46.310;11.214;2023-08-06T07:10:31;0.75;;;0.75;;
9986;SDS011;5033;46.310;11.214;2023-08-06T07:12:58;1.45;;;0.90;;
9986;SDS011;5033;46.310;11.214;2023-08-06T07:15:25;0.77;;;0.77;;
9986;SDS011;5033;46.310;11.214;2023-08-06T07:17:52;1.02;;;0.98;;
9986;SDS011;5033;46.310;11.214;2023-08-06T07:20:21;0.70;;;0.70;;
9986;SDS011;5033;46.310;11.214;2023-08-06T07:22:48;0.98;;;0.82;;
9986;SDS011;5033;46.310;11.214;2023-08-06T07:25:15;0.98;;;0.88;;
9986;SDS011;5033;46.310;11.214;2023-08-06T07:27:42;0.70;;;0.70;;
9986;SDS011;5033;46.310;11.214;2023-08-06T07:30:09;0.77;;;0.77;;
9986;SDS011;5033;46.310;11.214;2023-08-06T07:32:37;1.00;;;0.90;;
9986;SDS011;5033;46.310;11.214;2023-08-06T07:35:04;1.17;;;1.13;;
9986;SDS011;5033;46.310;11.214;2023-08-06T07:37:34;1.00;;;1.00;;
9986;SDS011;5033;46.310;11.214;2023-08-06T07:40:02;0.73;;;0.73;;
9986;SDS011;5033;46.310;11.214;2023-08-06T07:42:29;1.67;;;1.00;;
9986;SDS011;5033;46.310;11.214;2023-08-06T07:44:57;2.00;;;0.75;;
9986;SDS011;5033;46.310;11.214;2023-08-06T07:47:25;1.55;;;0.80;;
9986;SDS011;5033;46.310;11.214;2023-08-06T07:49:52;0.95;;;0.90;;
9986;SDS011;5033;46.310;11.214;2023-08-06T07:52:19;1.10;;;1.00;;
9986;SDS011;5033;46.310;11.214;2023-08-06T07:54:47;1.15;;;0.73;;
9986;SDS011;5033;46.310;11.214;2023-08-06T07:57:14;0.77;;;0.77;;
9986;SDS011;5033;46.310;11.214;2023-08-06T07:59:41;0.82;;;0.82;;
9986;SDS011;5033;46.310;11.214;2023-08-06T08:02:08;1.05;;;0.90;;
9986;SDS011;5033;46.310;11.214;2023-08-06T08:04:35;1.20;;;1.10;;
9986;SDS011;5033;46.310;11.214;2023-08-06T08:07:03;0.80;;;0.80;;
9986;SDS011;5033;46.310;11.214;2023-08-06T08:09:30;1.80;;;0.88;;
9986;SDS011;5033;46.310;11.214;2023-08-06T08:11:59;1.15;;;0.98;;
9986;SDS011;5033;46.310;11.214;2023-08-06T08:14:28;1.00;;;1.00;;
9986;SDS011;5033;46.310;11.214;2023-08-06T08:17:00;0.90;;;0.80;;
9986;SDS011;5033;46.310;11.214;2023-08-06T08:19:27;0.93;;;0.93;;
9986;SDS011;5033;46.310;11.214;2023-08-06T08:21:54;0.88;;;0.70;;
9986;SDS011;5033;46.310;11.214;2023-08-06T08:24:21;2.22;;;0.93;;
9986;SDS011;5033;46.310;11.214;2023-08-06T08:26:50;0.80;;;0.80;;
9986;SDS011;5033;46.310;11.214;2023-08-06T08:29:19;0.60;;;0.60;;
9986;SDS011;5033;46.310;11.214;2023-08-06T08:31:46;0.80;;;0.80;;
9986;SDS011;5033;46.310;11.214;2023-08-06T08:34:14;1.08;;;0.75;;
9986;SDS011;5033;46.310;11.214;2023-08-06T08:36:41;1.55;;;0.70;;
9986;SDS011;5033;46.310;11.214;2023-08-06T08:39:08;0.80;;;0.80;;
9986;SDS011;5033;46.310;11.214;2023-08-06T08:41:36;0.90;;;0.90;;
9986;SDS011;5033;46.310;11.214;2023-08-06T08:44:04;0.85;;;0.85;;
9986;SDS011;5033;46.310;11.214;2023-08-06T08:46:35;3.72;;;1.02;;
9986;SDS011;5033;46.310;11.214;2023-08-06T08:49:04;2.60;;;0.70;;
9986;SDS011;5033;46.310;11.214;2023-08-06T08:51:33;0.70;;;0.70;;
9986;SDS011;5033;46.310;11.214;2023-08-06T08:54:01;3.72;;;0.90;;
9986;SDS011;5033;46.310;11.214;2023-08-06T08:56:30;0.70;;;0.70;;
9986;SDS011;5033;46.310;11.214;2023-08-06T08:58:57;0.70;;;0.70;;
9986;SDS011;5033;46.310;11.214;2023-08-06T09:01:25;0.82;;;0.70;;
9986;SDS011;5033;46.310;11.214;2023-08-06T09:03:55;0.70;;;0.70;;
9986;SDS011;5033;46.310;11.214;2023-08-06T09:06:24;0.70;;;0.70;;
9986;SDS011;5033;46.310;11.214;2023-08-06T09:08:54;0.70;;;0.70;;
9986;SDS011;5033;46.310;11.214;2023-08-06T09:11:28;0.70;;;0.70;;
9986;SDS011;5033;46.310;11.214;2023-08-06T09:14:03;0.70;;;0.70;;
9986;SDS011;5033;46.310;11.214;2023-08-06T09:16:32;2.13;;;0.90;;
9986;SDS011;5033;46.310;11.214;2023-08-06T09:19:07;0.60;;;0.60;;
9986;SDS011;5033;46.310;11.214;2023-08-06T09:21:36;0.80;;;0.80;;
9986;SDS011;5033;46.310;11.214;2023-08-06T09:24:07;0.77;;;0.77;;
9986;SDS011;5033;46.310;11.214;2023-08-06T09:26:36;1.10;;;0.80;;
9986;SDS011;5033;46.310;11.214;2023-08-06T09:29:04;1.35;;;0.88;;
9986;SDS011;5033;46.310;11.214;2023-08-06T09:31:33;0.85;;;0.65;;
9986;SDS011;5033;46.310;11.214;2023-08-06T09:34:00;0.70;;;0.70;;
9986;SDS011;5033;46.310;11.214;2023-08-06T09:36:30;0.88;;;0.88;;
9986;SDS011;5033;46.310;11.214;2023-08-06T09:38:57;0.60;;;0.60;;
9986;SDS011;5033;46.310;11.214;2023-08-06T09:41:27;0.70;;;0.70;;
9986;SDS011;5033;46.310;11.214;2023-08-06T09:43:54;0.57;;;0.57;;
9986;SDS011;5033;46.310;11.214;2023-08-06T09:46:21;1.92;;;0.80;;
9986;SDS011;5033;46.310;11.214;2023-08-06T09:48:49;0.70;;;0.70;;
9986;SDS011;5033;46.310;11.214;2023-08-06T09:51:17;0.73;;;0.73;;
9986;SDS011;5033;46.310;11.214;2023-08-06T09:53:45;0.70;;;0.70;;
9986;SDS011;5033;46.310;11.214;2023-08-06T09:56:15;0.80;;;0.80;;
9986;SDS011;5033;46.310;11.214;2023-08-06T09:58:44;0.93;;;0.85;;
9986;SDS011;5033;46.310;11.214;2023-08-06T10:01:15;0.73;;;0.73;;
9986;SDS011;5033;46.310;11.214;2023-08-06T10:03:44;0.98;;;0.80;;
9986;SDS011;5033;46.310;11.214;2023-08-06T10:06:12;0.73;;;0.73;;
9986;SDS011;5033;46.310;11.214;2023-08-06T10:08:39;0.73;;;0.73;;
9986;SDS011;5033;46.310;11.214;2023-08-06T10:11:09;0.80;;;0.80;;
9986;SDS011;5033;46.310;11.214;2023-08-06T10:13:37;0.70;;;0.70;;
9986;SDS011;5033;46.310;11.214;2023-08-06T10:16:05;0.60;;;0.60;;
9986;SDS011;5033;46.310;11.214;2023-08-06T10:18:33;1.92;;;0.70;;
9986;SDS011;5033;46.310;11.214;2023-08-06T10:21:02;0.60;;;0.60;;
9986;SDS011;5033;46.310;11.214;2023-08-06T10:23:32;0.90;;;0.90;;
9986;SDS011;5033;46.310;11.214;2023-08-06T10:26:03;0.70;;;0.70;;
9986;SDS011;5033;46.310;11.214;2023-08-06T10:28:35;0.52;;;0.52;;
9986;SDS011;5033;46.310;11.214;2023-08-06T10:31:03;0.60;;;0.60;;
9986;SDS011;5033;46.310;11.214;2023-08-06T10:33:40;1.60;;;0.68;;
9986;SDS011;5033;46.310;11.214;2023-08-06T10:36:09;0.80;;;0.80;;
9986;SDS011;5033;46.310;11.214;2023-08-06T10:38:43;0.70;;;0.70;;
9986;SDS011;5033;46.310;11.214;2023-08-06T10:41:22;1.27;;;0.70;;
9986;SDS011;5033;46.310;11.214;2023-08-06T10:43:51;0.80;;;0.80;;
9986;SDS011;5033;46.310;11.214;2023-08-06T10:46:31;0.82;;;0.82;;
9986;SDS011;5033;46.310;11.214;2023-08-06T10:48:58;0.70;;;0.70;;
9986;SDS011;5033;46.310;11.214;2023-08-06T10:51:25;0.60;;;0.60;;
9986;SDS011;5033;46.310;11.214;2023-08-06T10:53:52;0.65;;;0.65;;
9986;SDS011;5033;46.310;11.214;2023-08-06T10:56:21;0.75;;;0.75;;
9986;SDS011;5033;46.310;11.214;2023-08-06T10:58:49;0.70;;;0.70;;
9986;SDS011;5033;46.310;11.214;2023-08-06T11:01:19;1.20;;;0.70;;
9986;SDS011;5033;46.310;11.214;2023-08-06T11:03:48;0.82;;;0.82;;
9986;SDS011;5033;46.310;11.214;2023-08-06T11:06:18;0.60;;;0.60;;
9986;SDS011;5033;46.310;11.214;2023-08-06T11:08:47;1.58;;;0.90;;
9986;SDS011;5033;46.310;11.214;2023-08-06T11:11:15;0.90;;;0.63;;
9986;SDS011;5033;46.310;11.214;2023-08-06T11:13:44;0.80;;;0.80;;
9986;SDS011;5033;46.310;11.214;2023-08-06T11:16:13;0.60;;;0.60;;
9986;SDS011;5033;46.310;11.214;2023-08-06T11:18:41;0.50;;;0.50;;
9986;SDS011;5033;46.310;11.214;2023-08-06T11:21:09;0.70;;;0.70;;
9986;SDS011;5033;46.310;11.214;2023-08-06T11:23:36;0.73;;;0.73;;
9986;SDS011;5033;46.310;11.214;2023-08-06T11:26:04;0.77;;;0.77;;
9986;SDS011;5033;46.310;11.214;2023-08-06T11:28:31;0.60;;;0.60;;
9986;SDS011;5033;46.310;11.214;2023-08-06T11:30:58;0.70;;;0.70;;
9986;SDS011;5033;46.310;11.214;2023-08-06T11:33:29;0.70;;;0.70;;
9986;SDS011;5033;46.310;11.214;2023-08-06T11:35:56;0.65;;;0.65;;
9986;SDS011;5033;46.310;11.214;2023-08-06T11:38:25;0.68;;;0.68;;
9986;SDS011;5033;46.310;11.214;2023-08-06T11:40:53;0.80;;;0.80;;
9986;SDS011;5033;46.310;11.214;2023-08-06T11:43:20;0.73;;;0.73;;
9986;SDS011;5033;46.310;11.214;2023-08-06T11:45:48;0.70;;;0.70;;
9986;SDS011;5033;46.310;11.214;2023-08-06T11:48:18;0.70;;;0.70;;
9986;SDS011;5033;46.310;11.214;2023-08-06T11:50:47;0.65;;;0.65;;
9986;SDS011;5033;46.310;11.214;2023-08-06T11:53:14;0.60;;;0.60;;
9986;SDS011;5033;46.310;11.214;2023-08-06T11:55:41;1.55;;;0.70;;
9986;SDS011;5033;46.310;11.214;2023-08-06T11:58:09;0.60;;;0.60;;
9986;SDS011;5033;46.310;11.214;2023-08-06T12:00:37;0.60;;;0.60;;
9986;SDS011;5033;46.310;11.214;2023-08-06T12:03:05;0.65;;;0.65;;
9986;SDS011;5033;46.310;11.214;2023-08-06T12:05:32;0.68;;;0.60;;
9986;SDS011;5033;46.310;11.214;2023-08-06T12:08:01;0.70;;;0.70;;
9986;SDS011;5033;46.310;11.214;2023-08-06T12:10:29;0.63;;;0.63;;
9986;SDS011;5033;46.310;11.214;2023-08-06T12:12:58;2.33;;;0.90;;
9986;SDS011;5033;46.310;11.214;2023-08-06T12:15:26;1.20;;;0.80;;
9986;SDS011;5033;46.310;11.214;2023-08-06T12:17:53;0.75;;;0.75;;
9986;SDS011;5033;46.310;11.214;2023-08-06T12:20:20;1.10;;;1.00;;
9986;SDS011;5033;46.310;11.214;2023-08-06T12:22:47;1.55;;;0.98;;
9986;SDS011;5033;46.310;11.214;2023-08-06T12:25:16;1.27;;;0.73;;
9986;SDS011;5033;46.310;11.214;2023-08-06T12:27:44;0.90;;;0.65;;
9986;SDS011;5033;46.310;11.214;2023-08-06T12:30:11;0.77;;;0.70;;
9986;SDS011;5033;46.310;11.214;2023-08-06T12:32:39;1.00;;;1.00;;
9986;SDS011;5033;46.310;11.214;2023-08-06T12:35:06;0.90;;;0.90;;
9986;SDS011;5033;46.310;11.214;2023-08-06T12:37:34;0.90;;;0.85;;
9986;SDS011;5033;46.310;11.214;2023-08-06T12:40:03;1.15;;;1.05;;
9986;SDS011;5033;46.310;11.214;2023-08-06T12:42:32;0.85;;;0.85;;
9986;SDS011;5033;46.310;11.214;2023-08-06T12:44:59;1.13;;;0.90;;
9986;SDS011;5033;46.310;11.214;2023-08-06T12:47:27;0.70;;;0.70;;
9986;SDS011;5033;46.310;11.214;2023-08-06T12:49:54;0.60;;;0.60;;
9986;SDS011;5033;46.310;11.214;2023-08-06T12:52:24;0.60;;;0.60;;
9986;SDS011;5033;46.310;11.214;2023-08-06T12:54:51;0.60;;;0.60;;
9986;SDS011;5033;46.310;11.214;2023-08-06T12:57:18;0.70;;;0.70;;
9986;SDS011;5033;46.310;11.214;2023-08-06T12:59:46;0.88;;;0.82;;
9986;SDS011;5033;46.310;11.214;2023-08-06T13:02:14;0.60;;;0.60;;
9986;SDS011;5033;46.310;11.214;2023-08-06T13:04:41;0.50;;;0.50;;
9986;SDS011;5033;46.310;11.214;2023-08-06T13:07:08;1.15;;;0.65;;
9986;SDS011;5033;46.310;11.214;2023-08-06T13:09:35;0.60;;;0.60;;
9986;SDS011;5033;46.310;11.214;2023-08-06T13:12:02;0.75;;;0.60;;
9986;SDS011;5033;46.310;11.214;2023-08-06T13:14:31;0.60;;;0.60;;
9986;SDS011;5033;46.310;11.214;2023-08-06T13:17:00;0.70;;;0.70;;
9986;SDS011;5033;46.310;11.214;2023-08-06T13:19:27;0.60;;;0.60;;
9986;SDS011;5033;46.310;11.214;2023-08-06T13:21:58;0.52;;;0.52;;
9986;SDS011;5033;46.310;11.214;2023-08-06T13:24:28;0.70;;;0.70;;
9986;SDS011;5033;46.310;11.214;2023-08-06T13:26:55;0.50;;;0.50;;
9986;SDS011;5033;46.310;11.214;2023-08-06T13:29:22;0.60;;;0.60;;
9986;SDS011;5033;46.310;11.214;2023-08-06T13:31:50;0.68;;;0.68;;
9986;SDS011;5033;46.310;11.214;2023-08-06T13:34:19;0.52;;;0.50;;
9986;SDS011;5033;46.310;11.214;2023-08-06T13:36:46;0.60;;;0.60;;
9986;SDS011;5033;46.310;11.214;2023-08-06T13:39:13;0.45;;;0.45;;
9986;SDS011;5033;46.310;11.214;2023-08-06T13:41:42;0.50;;;0.50;;
9986;SDS011;5033;46.310;11.214;2023-08-06T13:44:09;0.52;;;0.52;;
9986;SDS011;5033;46.310;11.214;2023-08-06T13:46:39;0.50;;;0.50;;
9986;SDS011;5033;46.310;11.214;2023-08-06T13:49:06;0.50;;;0.50;;
9986;SDS011;5033;46.310;11.214;2023-08-06T13:51:35;0.40;;;0.40;;
9986;SDS011;5033;46.310;11.214;2023-08-06T13:54:03;0.50;;;0.50;;
9986;SDS011;5033;46.310;11.214;2023-08-06T13:56:30;0.50;;;0.50;;
9986;SDS011;5033;46.310;11.214;2023-08-06T13:58:58;0.60;;;0.60;;
9986;SDS011;5033;46.310;11.214;2023-08-06T14:01:25;0.40;;;0.40;;
9986;SDS011;5033;46.310;11.214;2023-08-06T14:03:52;0.50;;;0.50;;
9986;SDS011;5033;46.310;11.214;2023-08-06T14:06:20;0.40;;;0.40;;
9986;SDS011;5033;46.310;11.214;2023-08-06T14:08:48;0.60;;;0.60;;
9986;SDS011;5033;46.310;11.214;2023-08-06T14:11:15;0.40;;;0.40;;
9986;SDS011;5033;46.310;11.214;2023-08-06T14:13:42;0.40;;;0.40;;
9986;SDS011;5033;46.310;11.214;2023-08-06T14:16:09;0.52;;;0.45;;
9986;SDS011;5033;46.310;11.214;2023-08-06T14:18:36;0.88;;;0.63;;
9986;SDS011;5033;46.310;11.214;2023-08-06T14:21:04;0.50;;;0.50;;
9986;SDS011;5033;46.310;11.214;2023-08-06T14:23:31;1.45;;;0.43;;
9986;SDS011;5033;46.310;11.214;2023-08-06T14:25:59;0.57;;;0.55;;
9986;SDS011;5033;46.310;11.214;2023-08-06T14:28:27;0.60;;;0.60;;
9986;SDS011;5033;46.310;11.214;2023-08-06T14:30:54;0.70;;;0.70;;
9986;SDS011;5033;46.310;11.214;2023-08-06T14:33:21;0.57;;;0.50;;
9986;SDS011;5033;46.310;11.214;2023-08-06T14:35:48;0.57;;;0.57;;
9986;SDS011;5033;46.310;11.214;2023-08-06T14:38:15;0.50;;;0.50;;
9986;SDS011;5033;46.310;11.214;2023-08-06T14:40:43;0.35;;;0.35;;
9986;SDS011;5033;46.310;11.214;2023-08-06T14:43:11;0.40;;;0.40;;
9986;SDS011;5033;46.310;11.214;2023-08-06T14:45:39;0.50;;;0.50;;
9986;SDS011;5033;46.310;11.214;2023-08-06T14:48:06;0.30;;;0.30;;
9986;SDS011;5033;46.310;11.214;2023-08-06T14:50:33;0.40;;;0.40;;
9986;SDS011;5033;46.310;11.214;2023-08-06T14:53:04;0.38;;;0.38;;
9986;SDS011;5033;46.310;11.214;2023-08-06T14:55:31;0.30;;;0.30;;
9986;SDS011;5033;46.310;11.214;2023-08-06T14:58:00;0.40;;;0.40;;
9986;SDS011;5033;46.310;11.214;2023-08-06T15:00:29;0.45;;;0.45;;
9986;SDS011;5033;46.310;11.214;2023-08-06T15:02:56;0.50;;;0.50;;
9986;SDS011;5033;46.310;11.214;2023-08-06T15:05:24;0.60;;;0.43;;